Terminal Aerodrome Forecast
Issued by NWS Pocatello, ID

Home | Current Version | Previous Version | Text Only | Print | Product List | Glossary On
Versions: 1 2 3 4 5 6 7 8 9 10 11 12 13 14 15
000
FTUS45 KPIH 200500
TAFIDA
TAF
KIDA 200520Z 2006/2106 20007KT P6SM BKN120
     FM201100 22010G20KT P6SM FEW130 SCT180
     FM201600 22017G27KT P6SM BKN180
     FM210000 21011KT P6SM SKC=

USA.gov is the U.S. government's official web portal to all federal, state and local government web resources and services.